Terminal Aerodrome Forecast
Issued by NWS

Home | Current Version | Previous Version | Text Only | Print | Product List | Glossary On
Versions: 1 2 3 4 5 6 7 8 9 10 11 12
000
FTUS46 KPDT 012330
TAFRDM
TAF
KRDM 012330Z 0200/0224 33010KT P6SM SCT150 BKN250
     FM020400 31008KT P6SM SCT120 BKN200
     FM020900 16004KT P6SM FEW120 SCT150
     FM021600 33006KT P6SM SCT120 BKN200
     FM022200 32010G17KT P6SM SCT120 BKN180=

USA.gov is the U.S. government's official web portal to all federal, state and local government web resources and services.